Ted Stevens Anchorage International Airport Anchorage US
ICAO: PANC
IATA: ANC
Category: Large
Scheduled Services:

Elevation: 152 ft
TransAlt. 18000 ft.

Airport Communications:
APP/DEP:119.1
APP/DEP:123.8
ATIS:118.4
TWEB:114.3
CLNC DEL:119.4
KENAI RDO:122.2
GND:121.9
SAN FRANCISCO ARINC:1133
CAMPER:140.15
KENAI RDO:122.55
TWR:118.3
UNICOM:122.95

PANC Zoom In..

Runways:

(A) RW 07L length 10600 ft width 150 ft
ILS 109.90 / hdg 71

(B) RW 07R length 12400 ft width 200 ft
ILS 111.30 / hdg 71

(C) RW 15 length 11584 ft width 150 ft
ILS 111.75 / hdg 146

(D) RW 25L length 12400 ft width 200 ft
---- / hdg 251

(E) RW 25R length 10600 ft width 150 ft
---- / hdg 251

(F) RW 33 length 11584 ft width 150 ft
---- / hdg 326

Location; PANC
Day. 25 / Time. 09.53 Zulu
* Altimeter: 29.80
* Temperature: 04° c. 39.2°f.
* Wind from: 150° Speed 16 kn with Gusts up to 23 kn.
Dewpoint: 00° c.
Visibility: 10 Statute Miles.
Clouds: Few 4500 ft.
Clouds: Broken 6500 ft.
Clouds: Broken 12000 ft.

PANC 250953Z 15016G23KT 10SM FEW045 BKN065 BKN120 04/00 A2980 RMK AO2 SLP093 T00440000


Wind From 150°
Speed 16 kn.

  YouTube Music Video
 
jpsmedia.com for Web Design  worldairports.se 2018   terms of use